Terminal Aerodrome Forecast
Issued by NWS

Home | Current Version | Previous Version | Text Only | Print | Product List | Glossary On
Versions: 1 2 3 4 5 6 7 8 9 10 11 12 13 14 15 16 17 18 19 20 21 22 23 24 25 26 27 28 29 30 31 32 33 34 35 36 37 38
000
FTUS45 KBYZ 252323
TAFLVM
TAF
KLVM 252323Z 2600/2624 09009KT P6SM VCSH SCT060 BKN090
     FM260300 VRB06KT P6SM SCT100
     FM260800 26008KT P6SM VCSH BKN070
     FM261600 28008KT P6SM VCSH SCT035 BKN110=

USA.gov is the U.S. government's official web portal to all federal, state and local government web resources and services.